createdAt,value
2023-03-07T00:00:45.003Z,0.96
2023-03-07T00:03:12.965Z,0.96
2023-03-07T00:05:43.112Z,0.89
2023-03-07T00:08:10.535Z,0.61
2023-03-07T00:10:37.032Z,0.80
2023-03-07T00:13:04.106Z,0.85
2023-03-07T00:15:30.829Z,0.85
2023-03-07T00:17:58.233Z,1.07
2023-03-07T00:20:24.721Z,0.61
2023-03-07T00:22:51.123Z,0.90
2023-03-07T00:25:17.805Z,0.58
2023-03-07T00:27:44.202Z,0.24
2023-03-07T00:30:12.436Z,0.53
2023-03-07T00:32:39.102Z,0.41
2023-03-07T00:35:06.013Z,0.32
2023-03-07T00:37:32.430Z,0.64
2023-03-07T00:39:58.837Z,0.59
2023-03-07T00:42:25.206Z,0.90
2023-03-07T00:44:51.584Z,0.76
2023-03-07T00:47:17.952Z,0.68
2023-03-07T00:49:44.322Z,0.73
2023-03-07T00:52:10.691Z,0.67
2023-03-07T00:54:41.339Z,0.64
2023-03-07T00:57:07.712Z,0.45
2023-03-07T00:59:34.114Z,0.48
2023-03-07T01:02:00.532Z,0.54
2023-03-07T01:04:26.991Z,0.34
2023-03-07T01:06:53.423Z,0.25
2023-03-07T01:09:19.823Z,0.14
2023-03-07T01:11:49.643Z,0.54
2023-03-07T01:14:16.054Z,0.62
2023-03-07T01:16:42.441Z,0.77
2023-03-07T01:19:12.486Z,0.78
2023-03-07T01:21:40.857Z,1.02
2023-03-07T01:24:08.627Z,0.68
2023-03-07T01:26:35.389Z,0.73
2023-03-07T01:29:04.924Z,0.70
2023-03-07T01:31:32.491Z,0.64
2023-03-07T01:33:59.826Z,0.62
2023-03-07T01:36:30.235Z,0.67
2023-03-07T01:39:00.937Z,0.79
2023-03-07T01:41:31.948Z,0.66
2023-03-07T01:43:59.592Z,0.54
2023-03-07T01:46:31.976Z,0.59
2023-03-07T01:49:05.016Z,0.52
2023-03-07T01:51:32.726Z,0.21
2023-03-07T01:54:01.591Z,0.12
2023-03-07T01:56:28.253Z,0.64
2023-03-07T01:58:55.603Z,0.49
2023-03-07T02:01:23.437Z,0.41
2023-03-07T02:04:18.340Z,0.71
2023-03-07T02:06:44.780Z,0.41
2023-03-07T02:09:16.991Z,0.56
2023-03-07T02:11:44.996Z,0.42
2023-03-07T02:14:11.821Z,0.31
2023-03-07T02:16:39.712Z,0.35
2023-03-07T02:19:22.052Z,0.51
2023-03-07T02:22:11.107Z,0.77
2023-03-07T02:24:51.836Z,0.50
2023-03-07T02:27:18.409Z,0.45
2023-03-07T02:29:49.868Z,0.49
2023-03-07T02:32:16.308Z,0.59
2023-03-07T02:34:42.866Z,0.61
2023-03-07T02:37:34.644Z,0.45
2023-03-07T02:40:06.552Z,0.71
2023-03-07T02:42:35.717Z,0.64
2023-03-07T02:45:05.672Z,0.46
2023-03-07T02:47:32.136Z,0.47
2023-03-07T02:49:58.529Z,0.55
2023-03-07T02:52:27.828Z,0.33
2023-03-07T02:54:55.038Z,0.48
2023-03-07T02:57:25.538Z,0.42
2023-03-07T02:59:51.984Z,0.30
2023-03-07T03:02:18.544Z,0.31
2023-03-07T03:04:45.129Z,0.49
2023-03-07T03:07:11.738Z,0.33
2023-03-07T03:09:38.148Z,0.43
2023-03-07T03:12:04.747Z,0.51
2023-03-07T03:14:32.418Z,0.42
2023-03-07T03:16:58.846Z,0.56
2023-03-07T03:19:25.295Z,0.62
2023-03-07T03:21:51.836Z,0.51
2023-03-07T03:24:18.224Z,0.62
2023-03-07T03:26:44.711Z,0.52
2023-03-07T03:29:11.514Z,0.42
2023-03-07T03:31:38.068Z,0.41
2023-03-07T03:34:05.608Z,0.29
2023-03-07T03:36:32.589Z,0.14
2023-03-07T03:39:00.864Z,0.16
2023-03-07T03:41:27.442Z,0.16
2023-03-07T03:43:53.919Z,0.22
2023-03-07T03:46:20.489Z,-0.04
2023-03-07T03:48:56.272Z,0.01
2023-03-07T03:51:24.304Z,-0.02
2023-03-07T03:53:51.455Z,-0.18
2023-03-07T03:56:20.702Z,-0.18
2023-03-07T03:58:48.363Z,-0.26
2023-03-07T04:01:14.820Z,-0.11
2023-03-07T04:03:44.546Z,0.10
2023-03-07T04:06:13.685Z,0.17
2023-03-07T04:08:41.156Z,0.34
2023-03-07T04:11:07.627Z,0.13
2023-03-07T04:13:35.528Z,-0.13
2023-03-07T04:16:02.995Z,0.29
2023-03-07T04:18:29.553Z,-0.09
2023-03-07T04:20:56.275Z,-0.13
2023-03-07T04:23:24.035Z,-0.12
2023-03-07T04:25:52.576Z,0.02
2023-03-07T04:28:19.664Z,0.12
2023-03-07T04:30:47.051Z,0.11
2023-03-07T04:33:13.550Z,-0.15
2023-03-07T04:35:39.988Z,-0.11
2023-03-07T04:38:07.130Z,-0.11
2023-03-07T04:40:35.040Z,0.04
2023-03-07T04:43:03.372Z,-0.01
2023-03-07T04:45:32.769Z,0.03
2023-03-07T04:47:59.259Z,-0.15
2023-03-07T04:50:25.651Z,-0.30
2023-03-07T04:52:52.148Z,-0.11
2023-03-07T04:55:18.572Z,-0.04
2023-03-07T04:57:45.004Z,-0.13
2023-03-07T05:00:11.985Z,0.04
2023-03-07T05:02:38.778Z,-0.19
2023-03-07T05:05:06.292Z,-0.13
2023-03-07T05:07:32.970Z,-0.30
2023-03-07T05:09:59.380Z,-0.25
2023-03-07T05:12:25.807Z,-0.22
2023-03-07T05:15:01.683Z,0.04
2023-03-07T05:17:30.656Z,-0.28
2023-03-07T05:19:57.201Z,-0.44
2023-03-07T05:22:24.264Z,-0.29
2023-03-07T05:24:50.804Z,-0.26
2023-03-07T05:27:23.569Z,-0.27
2023-03-07T05:29:51.992Z,-0.27
2023-03-07T05:32:18.447Z,-0.31
2023-03-07T05:34:46.983Z,-0.33
2023-03-07T05:37:13.841Z,-0.20
2023-03-07T05:39:40.390Z,-0.31
2023-03-07T05:42:06.896Z,-0.38
2023-03-07T05:44:34.260Z,-0.28
2023-03-07T05:47:00.766Z,-0.24
2023-03-07T05:49:27.185Z,-0.20
2023-03-07T05:51:53.598Z,-0.30
2023-03-07T05:54:20.090Z,-0.19
2023-03-07T05:56:46.491Z,-0.21
2023-03-07T05:59:15.508Z,-0.28
2023-03-07T06:01:42.643Z,-0.37
2023-03-07T06:04:15.093Z,-0.33
2023-03-07T06:06:41.538Z,-0.33
2023-03-07T06:09:08.052Z,-0.33
2023-03-07T06:11:34.624Z,-0.35
2023-03-07T06:14:01.116Z,-0.44
2023-03-07T06:16:27.612Z,-0.16
2023-03-07T06:18:54.084Z,-0.02
2023-03-07T06:21:20.488Z,-0.14
2023-03-07T06:23:47.060Z,-0.11
2023-03-07T06:26:13.521Z,-0.11
2023-03-07T06:28:40.339Z,-0.10
2023-03-07T06:31:14.989Z,-0.09
2023-03-07T06:33:47.735Z,0.20
2023-03-07T06:36:17.053Z,0.28
2023-03-07T06:38:43.811Z,0.07
2023-03-07T06:41:10.496Z,0.19
2023-03-07T06:43:37.068Z,0.24
2023-03-07T06:46:03.638Z,0.30
2023-03-07T06:48:30.244Z,0.54
2023-03-07T06:50:56.808Z,0.48
2023-03-07T06:53:23.290Z,0.29
2023-03-07T06:55:51.197Z,0.31
2023-03-07T06:58:18.426Z,0.10
2023-03-07T07:00:45.994Z,0.21
2023-03-07T07:03:14.050Z,0.08
2023-03-07T07:05:40.826Z,0.18
2023-03-07T07:08:07.627Z,0.24
2023-03-07T07:10:34.065Z,0.16
2023-03-07T07:13:00.631Z,0.06
2023-03-07T07:15:27.202Z,0.48
2023-03-07T07:17:53.893Z,0.39
2023-03-07T07:20:21.941Z,0.40
2023-03-07T07:22:48.523Z,0.59
2023-03-07T07:25:15.058Z,0.50
2023-03-07T07:27:41.462Z,0.36
2023-03-07T07:30:09.005Z,0.16
2023-03-07T07:32:35.648Z,0.36
2023-03-07T07:35:03.543Z,0.54
2023-03-07T07:37:29.950Z,0.45
2023-03-07T07:39:56.362Z,0.48
2023-03-07T07:42:22.817Z,0.67
2023-03-07T07:44:49.557Z,0.49
2023-03-07T07:47:16.025Z,0.52
2023-03-07T07:49:48.009Z,0.80
2023-03-07T07:52:14.474Z,0.87
2023-03-07T07:54:40.892Z,0.65
2023-03-07T07:57:07.370Z,0.97
2023-03-07T07:59:34.264Z,0.65
2023-03-07T08:02:01.959Z,0.78
2023-03-07T08:04:29.052Z,1.03
2023-03-07T08:06:55.471Z,1.13
2023-03-07T08:09:21.876Z,1.30
2023-03-07T08:11:48.516Z,1.30
2023-03-07T08:14:15.250Z,1.55
2023-03-07T08:16:42.020Z,1.71
2023-03-07T08:19:12.563Z,1.67
2023-03-07T08:21:58.949Z,1.80
2023-03-07T08:24:40.004Z,1.64
2023-03-07T08:27:07.192Z,1.41
2023-03-07T08:29:35.173Z,1.55
2023-03-07T08:32:01.861Z,1.59
2023-03-07T08:34:28.376Z,1.64
2023-03-07T08:36:54.799Z,1.66
2023-03-07T08:39:21.214Z,1.63
2023-03-07T08:41:47.627Z,1.79
2023-03-07T08:44:14.019Z,1.97
2023-03-07T08:46:40.598Z,1.94
2023-03-07T08:49:07.117Z,1.99
2023-03-07T08:51:34.957Z,1.98
2023-03-07T08:54:01.401Z,1.69
2023-03-07T08:56:27.881Z,2.05
2023-03-07T08:58:54.812Z,2.29
2023-03-07T09:01:21.411Z,1.86
2023-03-07T09:03:50.991Z,2.18
2023-03-07T09:06:19.406Z,2.33
2023-03-07T09:08:47.207Z,2.49
2023-03-07T09:11:14.376Z,2.53
2023-03-07T09:13:51.453Z,2.58
2023-03-07T09:16:19.388Z,2.52
2023-03-07T09:18:45.878Z,2.44
2023-03-07T09:21:21.817Z,2.33
2023-03-07T09:23:48.360Z,2.08
2023-03-07T09:26:15.730Z,2.82
2023-03-07T09:29:01.432Z,2.93
2023-03-07T09:31:27.939Z,3.07
2023-03-07T09:33:54.371Z,2.61
2023-03-07T09:36:20.831Z,2.76
2023-03-07T09:38:52.414Z,2.85
2023-03-07T09:41:31.475Z,3.13
2023-03-07T09:44:19.512Z,2.95
2023-03-07T09:47:04.282Z,3.09
2023-03-07T09:49:46.252Z,3.44
2023-03-07T09:52:27.862Z,3.28
2023-03-07T09:55:03.276Z,3.56
2023-03-07T09:57:55.239Z,3.32
2023-03-07T10:00:40.297Z,2.48
2023-03-07T10:03:19.570Z,2.09
2023-03-07T10:05:51.652Z,2.11
2023-03-07T10:08:24.782Z,2.43
2023-03-07T10:11:08.488Z,2.83
2023-03-07T10:13:50.197Z,3.19
2023-03-07T10:16:24.042Z,3.67
2023-03-07T10:19:15.917Z,3.78
2023-03-07T10:22:18.913Z,3.91
2023-03-07T10:25:10.260Z,3.78
2023-03-07T10:27:38.317Z,3.83
2023-03-07T10:30:17.871Z,3.84
2023-03-07T10:32:52.577Z,3.98
2023-03-07T10:35:22.342Z,4.01
2023-03-07T10:37:58.578Z,4.32
2023-03-07T10:40:33.605Z,4.01
2023-03-07T10:43:00.870Z,3.82
2023-03-07T10:45:32.703Z,3.94
2023-03-07T10:48:05.513Z,3.80
2023-03-07T10:50:31.999Z,3.99
2023-03-07T10:53:00.188Z,3.89
2023-03-07T10:55:32.909Z,3.58
2023-03-07T10:58:29.104Z,3.05
2023-03-07T11:01:06.678Z,3.42
2023-03-07T11:03:58.634Z,3.42
2023-03-07T11:06:31.339Z,3.74
2023-03-07T11:09:08.996Z,3.77
2023-03-07T11:11:36.798Z,3.57
2023-03-07T11:14:14.729Z,3.56
2023-03-07T11:17:02.524Z,3.74
2023-03-07T11:19:42.771Z,3.90
2023-03-07T11:22:33.757Z,4.22
2023-03-07T11:25:25.791Z,4.11
2023-03-07T11:27:56.645Z,3.90
2023-03-07T11:30:50.157Z,4.02
2023-03-07T11:33:58.643Z,4.09
2023-03-07T11:36:33.315Z,4.31
2023-03-07T11:39:03.041Z,4.27
2023-03-07T11:41:37.854Z,4.08
2023-03-07T11:44:25.826Z,4.35
2023-03-07T11:47:01.580Z,4.36
2023-03-07T11:49:49.240Z,4.25
2023-03-07T11:52:43.116Z,4.10
2023-03-07T11:55:49.843Z,4.26
2023-03-07T11:58:34.579Z,4.48
2023-03-07T12:01:13.118Z,4.69
2023-03-07T12:03:42.407Z,4.67
2023-03-07T12:06:33.179Z,4.54
2023-03-07T12:08:59.633Z,4.55
2023-03-07T12:12:10.023Z,4.65
2023-03-07T12:15:06.256Z,5.09
2023-03-07T12:17:50.353Z,5.35
2023-03-07T12:20:27.743Z,5.41
2023-03-07T12:23:15.543Z,5.61
2023-03-07T12:25:46.089Z,5.19
2023-03-07T12:28:19.874Z,5.28
2023-03-07T12:31:15.094Z,5.01
2023-03-07T12:33:59.957Z,5.34
2023-03-07T12:36:58.801Z,5.11
2023-03-07T12:39:48.195Z,5.00
2023-03-07T12:42:15.110Z,5.27
2023-03-07T12:44:58.110Z,5.37
2023-03-07T12:47:33.384Z,5.29
2023-03-07T12:50:18.767Z,5.58
2023-03-07T12:53:04.291Z,5.48
2023-03-07T12:55:41.714Z,5.98
2023-03-07T12:58:29.550Z,5.46
2023-03-07T13:01:14.429Z,5.24
2023-03-07T13:03:51.263Z,5.80
2023-03-07T13:06:20.580Z,5.58
2023-03-07T13:08:50.711Z,5.34
2023-03-07T13:11:19.615Z,5.55
2023-03-07T13:13:46.009Z,5.60
2023-03-07T13:16:31.590Z,5.68
2023-03-07T13:19:37.084Z,6.26
2023-03-07T13:22:23.744Z,6.13
2023-03-07T13:24:52.076Z,5.82
2023-03-07T13:27:24.229Z,6.21
2023-03-07T13:30:12.743Z,6.33
2023-03-07T13:32:48.400Z,6.25
2023-03-07T13:35:39.089Z,5.85
2023-03-07T13:38:23.860Z,5.98
2023-03-07T13:40:55.866Z,6.17
2023-03-07T13:43:32.251Z,6.44
2023-03-07T13:45:59.569Z,6.28
2023-03-07T13:48:29.137Z,6.25
2023-03-07T13:50:55.909Z,6.52
2023-03-07T13:53:30.878Z,6.58
2023-03-07T13:56:01.179Z,6.44
2023-03-07T13:59:06.273Z,6.27
2023-03-07T14:01:46.563Z,5.94
2023-03-07T14:04:33.200Z,6.05
2023-03-07T14:07:28.829Z,6.54
2023-03-07T14:10:21.445Z,6.63
2023-03-07T14:13:05.164Z,6.83
2023-03-07T14:15:57.050Z,7.09
2023-03-07T14:19:11.054Z,6.88
2023-03-07T14:21:51.977Z,7.15
2023-03-07T14:24:40.963Z,7.20
2023-03-07T14:27:13.564Z,6.81
2023-03-07T14:29:56.943Z,6.59
2023-03-07T14:32:32.124Z,6.79
2023-03-07T14:35:15.540Z,6.30
2023-03-07T14:37:49.406Z,6.57
2023-03-07T14:40:57.216Z,6.78
2023-03-07T14:43:40.664Z,6.88
2023-03-07T14:46:16.296Z,6.57
2023-03-07T14:48:59.167Z,6.22
2023-03-07T14:51:29.368Z,6.36
2023-03-07T14:54:12.715Z,6.67
2023-03-07T14:56:42.054Z,6.52
2023-03-07T14:59:25.897Z,6.74
2023-03-07T15:01:54.538Z,6.49
2023-03-07T15:04:28.702Z,6.53
2023-03-07T15:07:05.098Z,6.78
2023-03-07T15:09:33.670Z,6.76
2023-03-07T15:12:31.801Z,7.06
2023-03-07T15:15:02.386Z,6.83
2023-03-07T15:17:38.121Z,6.86
2023-03-07T15:20:22.482Z,6.66
2023-03-07T15:22:49.151Z,6.49
2023-03-07T15:25:23.966Z,6.63
2023-03-07T15:28:05.884Z,6.34
2023-03-07T15:30:34.557Z,6.55
2023-03-07T15:33:30.788Z,6.04
2023-03-07T15:36:13.641Z,6.45
2023-03-07T15:38:42.352Z,6.59
2023-03-07T15:41:25.265Z,6.68
2023-03-07T15:44:12.548Z,6.22
2023-03-07T15:46:44.255Z,5.95
2023-03-07T15:49:20.478Z,6.02
2023-03-07T15:51:49.899Z,5.69
2023-03-07T15:54:35.075Z,5.91
2023-03-07T15:57:05.321Z,6.12
2023-03-07T15:59:38.486Z,5.76
2023-03-07T16:02:32.954Z,5.76
2023-03-07T16:05:28.207Z,5.28
2023-03-07T16:08:00.056Z,5.39
2023-03-07T16:10:50.479Z,5.21
2023-03-07T16:13:33.146Z,5.16
2023-03-07T16:16:07.145Z,4.73
2023-03-07T16:18:39.292Z,5.23
2023-03-07T16:21:06.209Z,5.16
2023-03-07T16:23:33.838Z,4.85
2023-03-07T16:26:03.672Z,4.94
2023-03-07T16:28:30.087Z,5.07
2023-03-07T16:30:59.712Z,5.10
2023-03-07T16:33:26.150Z,4.90
2023-03-07T16:35:52.679Z,5.02
2023-03-07T16:38:19.204Z,4.77
2023-03-07T16:40:45.597Z,4.74
2023-03-07T16:43:29.459Z,4.66
2023-03-07T16:45:56.317Z,4.57
2023-03-07T16:48:22.997Z,4.18
2023-03-07T16:50:49.428Z,4.40
2023-03-07T16:53:16.423Z,4.33
2023-03-07T16:55:43.525Z,4.02
2023-03-07T16:58:20.586Z,4.15
2023-03-07T17:00:47.085Z,3.59
2023-03-07T17:03:13.538Z,3.53
2023-03-07T17:05:43.134Z,3.51
2023-03-07T17:08:09.601Z,3.59
2023-03-07T17:10:37.591Z,3.59
2023-03-07T17:13:17.472Z,3.51
2023-03-07T17:15:45.432Z,3.42
2023-03-07T17:18:13.614Z,3.13
2023-03-07T17:20:40.810Z,3.19
2023-03-07T17:23:07.407Z,2.90
2023-03-07T17:25:37.976Z,3.04
2023-03-07T17:28:07.518Z,3.23
2023-03-07T17:30:38.039Z,2.90
2023-03-07T17:33:05.465Z,3.14
2023-03-07T17:35:31.873Z,3.20
2023-03-07T17:37:58.325Z,2.87
2023-03-07T17:40:24.806Z,2.86
2023-03-07T17:42:51.765Z,2.83
2023-03-07T17:45:18.555Z,2.93
2023-03-07T17:47:44.982Z,2.99
2023-03-07T17:50:12.202Z,2.87
2023-03-07T17:52:41.759Z,2.88
2023-03-07T17:55:09.876Z,2.83
2023-03-07T17:57:36.697Z,2.57
2023-03-07T18:00:06.849Z,2.52
2023-03-07T18:02:33.345Z,2.31
2023-03-07T18:04:59.743Z,2.06
2023-03-07T18:07:26.311Z,2.20
2023-03-07T18:10:06.947Z,2.14
2023-03-07T18:12:34.843Z,1.91
2023-03-07T18:15:01.245Z,2.01
2023-03-07T18:17:33.313Z,1.86
2023-03-07T18:20:07.946Z,2.00
2023-03-07T18:22:38.268Z,1.94
2023-03-07T18:25:07.205Z,1.97
2023-03-07T18:27:33.607Z,1.85
2023-03-07T18:30:09.142Z,1.99
2023-03-07T18:32:35.645Z,1.83
2023-03-07T18:35:02.136Z,1.91
2023-03-07T18:37:30.542Z,1.88
2023-03-07T18:39:56.978Z,1.96
2023-03-07T18:42:23.351Z,2.07
2023-03-07T18:44:49.839Z,2.19
2023-03-07T18:47:16.297Z,2.04
2023-03-07T18:49:42.727Z,2.26
2023-03-07T18:52:09.121Z,2.09
2023-03-07T18:54:35.515Z,2.47
2023-03-07T18:57:20.282Z,2.27
2023-03-07T18:59:46.678Z,2.44
2023-03-07T19:02:13.129Z,2.06
2023-03-07T19:04:39.582Z,2.50
2023-03-07T19:07:06.137Z,2.41
2023-03-07T19:09:32.566Z,2.43
2023-03-07T19:11:58.977Z,2.46
2023-03-07T19:14:29.867Z,2.37
2023-03-07T19:16:56.250Z,2.19
2023-03-07T19:19:26.770Z,2.27
2023-03-07T19:21:53.202Z,2.19
2023-03-07T19:24:19.675Z,2.07
2023-03-07T19:26:46.415Z,2.10
2023-03-07T19:29:13.793Z,2.27
2023-03-07T19:31:43.622Z,2.27
2023-03-07T19:34:10.417Z,2.01
2023-03-07T19:36:41.685Z,2.07
2023-03-07T19:39:09.497Z,2.17
2023-03-07T19:41:37.682Z,1.99
2023-03-07T19:44:06.453Z,2.15
2023-03-07T19:46:32.887Z,1.90
2023-03-07T19:48:59.313Z,1.93
2023-03-07T19:51:26.425Z,2.04
2023-03-07T19:53:55.357Z,2.26
2023-03-07T19:56:27.384Z,2.30
2023-03-07T19:58:54.874Z,1.96
2023-03-07T20:01:22.861Z,1.90
2023-03-07T20:03:50.783Z,2.43
2023-03-07T20:06:20.109Z,2.43
2023-03-07T20:08:51.258Z,2.39
2023-03-07T20:11:25.018Z,2.63
2023-03-07T20:13:54.297Z,2.27
2023-03-07T20:16:20.980Z,2.40
2023-03-07T20:18:52.858Z,2.35
2023-03-07T20:21:21.470Z,2.40
2023-03-07T20:23:48.771Z,2.49
2023-03-07T20:26:29.848Z,2.65
2023-03-07T20:28:57.517Z,2.46
2023-03-07T20:31:24.113Z,2.44
2023-03-07T20:33:50.926Z,2.30
2023-03-07T20:36:32.725Z,1.97
2023-03-07T20:39:01.483Z,2.25
2023-03-07T20:41:30.798Z,2.49
2023-03-07T20:43:59.094Z,2.46
2023-03-07T20:46:25.967Z,2.02
2023-03-07T20:48:56.424Z,2.06
2023-03-07T20:51:26.886Z,2.04
2023-03-07T20:53:58.611Z,2.11
2023-03-07T20:56:27.194Z,2.09
2023-03-07T20:58:58.459Z,2.24
2023-03-07T21:01:27.367Z,2.32
2023-03-07T21:03:54.099Z,1.95
2023-03-07T21:06:21.388Z,2.21
2023-03-07T21:08:48.180Z,2.21
2023-03-07T21:11:24.760Z,2.42
2023-03-07T21:13:51.172Z,2.47
2023-03-07T21:16:23.120Z,1.89
2023-03-07T21:18:49.614Z,2.04
2023-03-07T21:21:25.406Z,2.17
2023-03-07T21:23:51.850Z,1.94
2023-03-07T21:26:23.408Z,1.87
2023-03-07T21:28:51.329Z,2.03
2023-03-07T21:31:19.678Z,2.10
2023-03-07T21:33:48.623Z,1.72
2023-03-07T21:36:16.737Z,1.91
2023-03-07T21:38:44.963Z,2.13
2023-03-07T21:41:12.371Z,1.74
2023-03-07T21:43:38.804Z,1.85
2023-03-07T21:46:07.114Z,1.62
2023-03-07T21:48:33.965Z,1.41
2023-03-07T21:51:01.038Z,1.43
2023-03-07T21:53:27.682Z,1.51
2023-03-07T21:55:55.105Z,1.58
2023-03-07T21:58:49.210Z,1.79
2023-03-07T22:01:21.908Z,1.79
2023-03-07T22:03:51.453Z,1.82
2023-03-07T22:06:17.874Z,1.67
2023-03-07T22:08:59.700Z,1.56
2023-03-07T22:11:26.114Z,1.40
2023-03-07T22:13:52.520Z,1.68
2023-03-07T22:16:23.150Z,1.60
2023-03-07T22:18:54.569Z,1.63
2023-03-07T22:21:21.450Z,1.57
2023-03-07T22:23:47.960Z,1.80
2023-03-07T22:26:14.382Z,1.62
2023-03-07T22:28:41.134Z,1.86
2023-03-07T22:31:10.854Z,1.51
2023-03-07T22:33:37.588Z,1.78
2023-03-07T22:36:40.149Z,1.86
2023-03-07T22:39:09.495Z,1.71
2023-03-07T22:41:36.085Z,1.72
2023-03-07T22:44:02.467Z,1.44
2023-03-07T22:46:28.959Z,1.76
2023-03-07T22:48:56.657Z,1.76
2023-03-07T22:51:24.727Z,1.49
2023-03-07T22:53:51.370Z,1.58
2023-03-07T22:56:19.472Z,1.68
2023-03-07T22:58:52.155Z,1.66
2023-03-07T23:01:21.995Z,1.85
2023-03-07T23:03:50.272Z,1.60
2023-03-07T23:06:17.559Z,1.44
2023-03-07T23:08:48.757Z,1.63
2023-03-07T23:11:16.816Z,1.77
2023-03-07T23:14:04.572Z,1.95
2023-03-07T23:16:32.314Z,1.65
2023-03-07T23:18:59.861Z,1.78
2023-03-07T23:21:29.790Z,1.38
2023-03-07T23:23:57.060Z,1.64
2023-03-07T23:26:29.395Z,1.77
2023-03-07T23:28:56.091Z,1.83
2023-03-07T23:31:27.562Z,1.62
2023-03-07T23:33:56.073Z,1.53
2023-03-07T23:36:23.361Z,1.57
2023-03-07T23:38:49.774Z,1.56
2023-03-07T23:41:16.423Z,1.76
2023-03-07T23:43:42.846Z,1.41
2023-03-07T23:46:09.293Z,1.51
2023-03-07T23:48:35.696Z,1.68
2023-03-07T23:51:02.314Z,1.72
2023-03-07T23:53:28.691Z,1.91
2023-03-07T23:55:55.082Z,1.73
2023-03-07T23:58:21.530Z,1.73
